sensor_id;sensor_type;location;lat;lon;timestamp;pressure;altitude;pressure_sealevel;temperature;humidity
62800;BME280;48842;51.046;13.796;2022-07-29T00:00:18;100493.56;;;21.82;34.27
62800;BME280;48842;51.046;13.796;2022-07-29T00:02:43;100494.53;;;21.79;34.39
62800;BME280;48842;51.046;13.796;2022-07-29T00:05:09;100488.31;;;21.78;34.59
62800;BME280;48842;51.046;13.796;2022-07-29T00:07:35;100491.94;;;21.77;34.62
62800;BME280;48842;51.046;13.796;2022-07-29T00:10:00;100490.19;;;21.76;34.92
62800;BME280;48842;51.046;13.796;2022-07-29T00:12:25;100492.94;;;21.75;34.95
62800;BME280;48842;51.046;13.796;2022-07-29T00:14:51;100493.91;;;21.72;35.12
62800;BME280;48842;51.046;13.796;2022-07-29T00:17:16;100496.63;;;21.71;35.02
62800;BME280;48842;51.046;13.796;2022-07-29T00:19:42;100496.75;;;21.68;35.20
62800;BME280;48842;51.046;13.796;2022-07-29T00:22:07;100502.22;;;21.65;35.36
62800;BME280;48842;51.046;13.796;2022-07-29T00:24:32;100496.09;;;21.63;35.55
62800;BME280;48842;51.046;13.796;2022-07-29T00:26:57;100490.00;;;21.59;35.52
62800;BME280;48842;51.046;13.796;2022-07-29T00:29:23;100482.97;;;21.56;35.64
62800;BME280;48842;51.046;13.796;2022-07-29T00:31:48;100489.25;;;21.55;35.74
62800;BME280;48842;51.046;13.796;2022-07-29T00:34:13;100476.00;;;21.54;35.68
62800;BME280;48842;51.046;13.796;2022-07-29T00:36:57;100475.16;;;21.52;35.93
62800;BME280;48842;51.046;13.796;2022-07-29T00:39:22;100465.50;;;21.48;36.04
62800;BME280;48842;51.046;13.796;2022-07-29T00:41:48;100465.63;;;21.44;36.13
62800;BME280;48842;51.046;13.796;2022-07-29T00:44:14;100465.72;;;21.43;36.24
62800;BME280;48842;51.046;13.796;2022-07-29T00:46:39;100470.31;;;21.39;36.42
62800;BME280;48842;51.046;13.796;2022-07-29T00:49:04;100469.53;;;21.36;36.46
62800;BME280;48842;51.046;13.796;2022-07-29T00:51:30;100465.19;;;21.33;36.55
62800;BME280;48842;51.046;13.796;2022-07-29T00:53:55;100459.97;;;21.30;36.64
62800;BME280;48842;51.046;13.796;2022-07-29T00:56:21;100456.53;;;21.28;36.76
62800;BME280;48842;51.046;13.796;2022-07-29T00:58:47;100457.50;;;21.25;36.93
62800;BME280;48842;51.046;13.796;2022-07-29T01:01:13;100457.63;;;21.22;36.92
62800;BME280;48842;51.046;13.796;2022-07-29T01:03:38;100460.47;;;21.18;37.13
62800;BME280;48842;51.046;13.796;2022-07-29T01:06:04;100448.97;;;21.16;37.26
62800;BME280;48842;51.046;13.796;2022-07-29T01:08:31;100440.25;;;21.12;37.33
62800;BME280;48842;51.046;13.796;2022-07-29T01:10:57;100440.38;;;21.09;37.47
62800;BME280;48842;51.046;13.796;2022-07-29T01:13:23;100437.78;;;21.07;37.81
62800;BME280;48842;51.046;13.796;2022-07-29T01:15:59;100440.56;;;21.04;37.83
62800;BME280;48842;51.046;13.796;2022-07-29T01:18:32;100439.72;;;21.02;37.85
62800;BME280;48842;51.046;13.796;2022-07-29T01:21:16;100431.00;;;20.99;38.08
62800;BME280;48842;51.046;13.796;2022-07-29T01:23:56;100434.63;;;20.96;38.00
62800;BME280;48842;51.046;13.796;2022-07-29T01:26:27;100424.16;;;20.91;38.05
62800;BME280;48842;51.046;13.796;2022-07-29T01:29:17;100423.38;;;20.88;38.31
62800;BME280;48842;51.046;13.796;2022-07-29T01:31:48;100427.13;;;20.84;38.32
62800;BME280;48842;51.046;13.796;2022-07-29T01:34:21;100425.44;;;20.81;38.41
62800;BME280;48842;51.046;13.796;2022-07-29T01:36:53;100428.16;;;20.80;38.45
62800;BME280;48842;51.046;13.796;2022-07-29T01:39:27;100429.06;;;20.79;38.39
62800;BME280;48842;51.046;13.796;2022-07-29T01:41:59;100422.00;;;20.78;38.38
62800;BME280;48842;51.046;13.796;2022-07-29T01:44:31;100421.19;;;20.75;38.41
62800;BME280;48842;51.046;13.796;2022-07-29T01:47:02;100421.25;;;20.74;38.46
62800;BME280;48842;51.046;13.796;2022-07-29T01:49:33;100412.41;;;20.73;38.52
62800;BME280;48842;51.046;13.796;2022-07-29T01:52:04;100414.25;;;20.71;38.64
62800;BME280;48842;51.046;13.796;2022-07-29T01:54:46;100418.78;;;20.69;38.99
62800;BME280;48842;51.046;13.796;2022-07-29T01:57:15;100417.03;;;20.68;38.82
62800;BME280;48842;51.046;13.796;2022-07-29T01:59:45;100414.44;;;20.65;38.91
62800;BME280;48842;51.046;13.796;2022-07-29T02:02:13;100426.94;;;20.63;38.97
62800;BME280;48842;51.046;13.796;2022-07-29T02:04:40;100425.28;;;20.61;39.02
62800;BME280;48842;51.046;13.796;2022-07-29T02:07:10;100427.16;;;20.57;39.23
62800;BME280;48842;51.046;13.796;2022-07-29T02:09:39;100430.78;;;20.54;39.23
62800;BME280;48842;51.046;13.796;2022-07-29T02:12:05;100422.06;;;20.51;39.47
62800;BME280;48842;51.046;13.796;2022-07-29T02:14:36;100419.47;;;20.49;39.61
62800;BME280;48842;51.046;13.796;2022-07-29T02:17:02;100414.25;;;20.46;39.59
62800;BME280;48842;51.046;13.796;2022-07-29T02:19:29;100413.34;;;20.46;39.80
62800;BME280;48842;51.046;13.796;2022-07-29T02:21:57;100409.91;;;20.44;39.77
62800;BME280;48842;51.046;13.796;2022-07-29T02:24:24;100411.81;;;20.40;40.00
62800;BME280;48842;51.046;13.796;2022-07-29T02:26:51;100417.19;;;20.38;39.89
62800;BME280;48842;51.046;13.796;2022-07-29T02:29:21;100416.31;;;20.38;40.04
62800;BME280;48842;51.046;13.796;2022-07-29T02:31:48;100415.50;;;20.36;40.08
62800;BME280;48842;51.046;13.796;2022-07-29T02:34:15;100410.19;;;20.36;40.10
62800;BME280;48842;51.046;13.796;2022-07-29T02:36:42;100411.03;;;20.36;40.32
62800;BME280;48842;51.046;13.796;2022-07-29T02:39:09;100411.09;;;20.35;40.40
62800;BME280;48842;51.046;13.796;2022-07-29T02:41:49;100405.88;;;20.32;40.66
62800;BME280;48842;51.046;13.796;2022-07-29T02:44:17;100406.84;;;20.29;40.58
62800;BME280;48842;51.046;13.796;2022-07-29T02:46:48;100403.38;;;20.27;40.60
62800;BME280;48842;51.046;13.796;2022-07-29T02:49:16;100407.88;;;20.25;40.66
62800;BME280;48842;51.046;13.796;2022-07-29T02:51:45;100403.50;;;20.24;40.68
62800;BME280;48842;51.046;13.796;2022-07-29T02:54:21;100404.41;;;20.23;40.76
62800;BME280;48842;51.046;13.796;2022-07-29T02:56:47;100402.66;;;20.22;40.76
62800;BME280;48842;51.046;13.796;2022-07-29T02:59:16;100402.72;;;20.20;40.82
62800;BME280;48842;51.046;13.796;2022-07-29T03:01:45;100409.00;;;20.19;40.78
62800;BME280;48842;51.046;13.796;2022-07-29T03:04:12;100403.69;;;20.18;40.68
62800;BME280;48842;51.046;13.796;2022-07-29T03:06:38;100403.75;;;20.16;40.71
62800;BME280;48842;51.046;13.796;2022-07-29T03:09:10;100405.59;;;20.14;40.82
62800;BME280;48842;51.046;13.796;2022-07-29T03:11:35;100405.59;;;20.14;40.95
62800;BME280;48842;51.046;13.796;2022-07-29T03:14:02;100409.19;;;20.13;40.96
62800;BME280;48842;51.046;13.796;2022-07-29T03:16:27;100405.66;;;20.13;40.94
62800;BME280;48842;51.046;13.796;2022-07-29T03:18:53;100405.66;;;20.13;40.93
62800;BME280;48842;51.046;13.796;2022-07-29T03:21:19;100404.75;;;20.14;41.02
62800;BME280;48842;51.046;13.796;2022-07-29T03:23:44;100403.00;;;20.13;41.03
62800;BME280;48842;51.046;13.796;2022-07-29T03:26:10;100403.91;;;20.12;41.22
62800;BME280;48842;51.046;13.796;2022-07-29T03:28:36;100405.66;;;20.13;41.14
62800;BME280;48842;51.046;13.796;2022-07-29T03:31:01;100401.19;;;20.13;41.12
62800;BME280;48842;51.046;13.796;2022-07-29T03:33:26;100407.41;;;20.14;41.04
62800;BME280;48842;51.046;13.796;2022-07-29T03:35:53;100398.53;;;20.13;40.98
62800;BME280;48842;51.046;13.796;2022-07-29T03:38:20;100393.28;;;20.12;41.02
62800;BME280;48842;51.046;13.796;2022-07-29T03:40:52;100390.72;;;20.09;41.03
62800;BME280;48842;51.046;13.796;2022-07-29T03:43:19;100397.97;;;20.05;41.23
62800;BME280;48842;51.046;13.796;2022-07-29T03:45:47;100391.84;;;20.01;41.31
62800;BME280;48842;51.046;13.796;2022-07-29T03:48:17;100391.91;;;20.00;41.42
62800;BME280;48842;51.046;13.796;2022-07-29T03:50:44;100390.16;;;19.99;41.49
62800;BME280;48842;51.046;13.796;2022-07-29T03:53:10;100385.75;;;19.99;41.60
62800;BME280;48842;51.046;13.796;2022-07-29T03:55:45;100389.38;;;19.97;41.88
62800;BME280;48842;51.046;13.796;2022-07-29T03:58:13;100381.44;;;19.95;41.70
62800;BME280;48842;51.046;13.796;2022-07-29T04:00:40;100391.16;;;19.96;41.91
62800;BME280;48842;51.046;13.796;2022-07-29T04:03:05;100392.06;;;19.95;42.01
62800;BME280;48842;51.046;13.796;2022-07-29T04:05:30;100396.53;;;19.95;41.98
62800;BME280;48842;51.046;13.796;2022-07-29T04:07:56;100396.53;;;19.95;41.98
62800;BME280;48842;51.046;13.796;2022-07-29T04:10:21;100393.03;;;19.93;42.09
62800;BME280;48842;51.046;13.796;2022-07-29T04:12:48;100387.72;;;19.93;42.16
62800;BME280;48842;51.046;13.796;2022-07-29T04:15:13;100399.31;;;19.90;42.26
62800;BME280;48842;51.046;13.796;2022-07-29T04:17:38;100402.94;;;19.89;42.28
62800;BME280;48842;51.046;13.796;2022-07-29T04:20:04;100401.97;;;19.90;42.39
62800;BME280;48842;51.046;13.796;2022-07-29T04:22:30;100412.63;;;19.90;42.63
62800;BME280;48842;51.046;13.796;2022-07-29T04:24:55;100408.19;;;19.91;42.62
62800;BME280;48842;51.046;13.796;2022-07-29T04:27:20;100412.56;;;19.92;42.76
62800;BME280;48842;51.046;13.796;2022-07-29T04:29:46;100410.78;;;19.92;42.81
62800;BME280;48842;51.046;13.796;2022-07-29T04:32:11;100405.47;;;19.92;42.99
62800;BME280;48842;51.046;13.796;2022-07-29T04:34:36;100407.22;;;19.93;42.97
62800;BME280;48842;51.046;13.796;2022-07-29T04:37:01;100408.03;;;19.95;43.02
62800;BME280;48842;51.046;13.796;2022-07-29T04:39:27;100400.84;;;19.97;43.09
62800;BME280;48842;51.046;13.796;2022-07-29T04:41:52;100410.53;;;20.00;42.96
62800;BME280;48842;51.046;13.796;2022-07-29T04:44:18;100403.38;;;20.02;43.00
62800;BME280;48842;51.046;13.796;2022-07-29T04:46:43;100402.38;;;20.04;43.06
62800;BME280;48842;51.046;13.796;2022-07-29T04:49:08;100391.69;;;20.06;43.03
62800;BME280;48842;51.046;13.796;2022-07-29T04:51:34;100400.44;;;20.10;42.91
62800;BME280;48842;51.046;13.796;2022-07-29T04:54:02;100400.41;;;20.11;42.94
62800;BME280;48842;51.046;13.796;2022-07-29T04:56:27;100399.44;;;20.14;42.66
62800;BME280;48842;51.046;13.796;2022-07-29T04:58:53;100404.69;;;20.15;42.71
62800;BME280;48842;51.046;13.796;2022-07-29T05:01:18;100401.03;;;20.18;42.73
62800;BME280;48842;51.046;13.796;2022-07-29T05:03:44;100396.56;;;20.20;42.99
62800;BME280;48842;51.046;13.796;2022-07-29T05:06:10;100395.63;;;20.21;42.82
62800;BME280;48842;51.046;13.796;2022-07-29T05:08:35;100394.69;;;20.22;42.89
62800;BME280;48842;51.046;13.796;2022-07-29T05:11:00;100395.47;;;20.26;42.63
62800;BME280;48842;51.046;13.796;2022-07-29T05:13:25;100390.88;;;20.29;42.63
62800;BME280;48842;51.046;13.796;2022-07-29T05:15:51;100389.06;;;20.31;42.52
62800;BME280;48842;51.046;13.796;2022-07-29T05:18:16;100385.34;;;20.35;42.34
62800;BME280;48842;51.046;13.796;2022-07-29T05:20:41;100392.28;;;20.39;42.53
62800;BME280;48842;51.046;13.796;2022-07-29T05:23:06;100390.47;;;20.42;42.51
62800;BME280;48842;51.046;13.796;2022-07-29T05:25:32;100388.59;;;20.44;42.72
62800;BME280;48842;51.046;13.796;2022-07-29T05:27:57;100390.28;;;20.46;42.59
62800;BME280;48842;51.046;13.796;2022-07-29T05:30:23;100392.00;;;20.49;42.35
62800;BME280;48842;51.046;13.796;2022-07-29T05:32:48;100398.09;;;20.51;42.19
62800;BME280;48842;51.046;13.796;2022-07-29T05:35:15;100398.91;;;20.53;42.20
62800;BME280;48842;51.046;13.796;2022-07-29T05:37:40;100407.66;;;20.56;42.13
62800;BME280;48842;51.046;13.796;2022-07-29T05:40:07;100398.72;;;20.59;42.28
62800;BME280;48842;51.046;13.796;2022-07-29T05:42:32;100398.59;;;20.62;42.18
62800;BME280;48842;51.046;13.796;2022-07-29T05:44:58;100400.25;;;20.66;41.92
62800;BME280;48842;51.046;13.796;2022-07-29T05:47:24;100402.75;;;20.71;42.21
62800;BME280;48842;51.046;13.796;2022-07-29T05:49:49;100399.91;;;20.75;41.88
62800;BME280;48842;51.046;13.796;2022-07-29T05:52:15;100400.69;;;20.78;41.89
62800;BME280;48842;51.046;13.796;2022-07-29T05:54:41;100403.25;;;20.81;41.73
62800;BME280;48842;51.046;13.796;2022-07-29T05:57:06;100399.66;;;20.82;41.90
62800;BME280;48842;51.046;13.796;2022-07-29T05:59:36;100400.50;;;20.84;41.91
62800;BME280;48842;51.046;13.796;2022-07-29T06:02:01;100394.09;;;20.88;41.93
62800;BME280;48842;51.046;13.796;2022-07-29T06:04:26;100396.66;;;20.91;41.83
62800;BME280;48842;51.046;13.796;2022-07-29T06:06:51;100389.41;;;20.95;41.66
62800;BME280;48842;51.046;13.796;2022-07-29T06:09:17;100397.34;;;20.96;41.66
62800;BME280;48842;51.046;13.796;2022-07-29T06:11:42;100395.44;;;21.00;41.89
62800;BME280;48842;51.046;13.796;2022-07-29T06:14:07;100400.66;;;21.03;41.54
62800;BME280;48842;51.046;13.796;2022-07-29T06:16:32;100398.72;;;21.06;41.67
62800;BME280;48842;51.046;13.796;2022-07-29T06:18:58;100399.50;;;21.10;41.54
62800;BME280;48842;51.046;13.796;2022-07-29T06:21:23;100404.75;;;21.12;41.55
62800;BME280;48842;51.046;13.796;2022-07-29T06:23:48;100404.56;;;21.16;41.38
62800;BME280;48842;51.046;13.796;2022-07-29T06:26:14;100398.16;;;21.22;41.56
62800;BME280;48842;51.046;13.796;2022-07-29T06:28:39;100406.81;;;21.27;41.51
62800;BME280;48842;51.046;13.796;2022-07-29T06:31:05;100400.38;;;21.33;41.66
62800;BME280;48842;51.046;13.796;2022-07-29T06:33:30;100401.84;;;21.40;41.45
62800;BME280;48842;51.046;13.796;2022-07-29T06:35:55;100399.84;;;21.47;41.33
62800;BME280;48842;51.046;13.796;2022-07-29T06:38:20;100396.06;;;21.52;41.41
62800;BME280;48842;51.046;13.796;2022-07-29T06:40:46;100400.28;;;21.58;41.44
62800;BME280;48842;51.046;13.796;2022-07-29T06:43:25;100396.41;;;21.65;40.99
62800;BME280;48842;51.046;13.796;2022-07-29T06:45:50;100401.53;;;21.71;40.74
62800;BME280;48842;51.046;13.796;2022-07-29T06:48:15;100402.19;;;21.76;40.52
62800;BME280;48842;51.046;13.796;2022-07-29T06:50:40;100406.53;;;21.79;40.38
62800;BME280;48842;51.046;13.796;2022-07-29T06:53:06;100401.84;;;21.84;40.60
62800;BME280;48842;51.046;13.796;2022-07-29T06:55:31;100406.06;;;21.90;40.43
62800;BME280;48842;51.046;13.796;2022-07-29T06:57:56;100406.75;;;21.95;40.46
62800;BME280;48842;51.046;13.796;2022-07-29T07:00:22;100406.56;;;22.00;40.25
62800;BME280;48842;51.046;13.796;2022-07-29T07:02:47;100407.28;;;22.03;40.26
62800;BME280;48842;51.046;13.796;2022-07-29T07:05:12;100411.50;;;22.09;40.31
62800;BME280;48842;51.046;13.796;2022-07-29T07:07:38;100407.75;;;22.13;40.06
62800;BME280;48842;51.046;13.796;2022-07-29T07:10:03;100405.84;;;22.17;39.59
62800;BME280;48842;51.046;13.796;2022-07-29T07:12:29;100402.00;;;22.22;39.58
62800;BME280;48842;51.046;13.796;2022-07-29T07:14:54;100408.97;;;22.26;39.64
62800;BME280;48842;51.046;13.796;2022-07-29T07:17:19;100401.59;;;22.33;39.66
62800;BME280;48842;51.046;13.796;2022-07-29T07:19:44;100411.06;;;22.40;39.57
62800;BME280;48842;51.046;13.796;2022-07-29T07:22:10;100403.63;;;22.47;39.64
62800;BME280;48842;51.046;13.796;2022-07-29T07:24:35;100406.91;;;22.54;39.29
62800;BME280;48842;51.046;13.796;2022-07-29T07:27:00;100397.91;;;22.56;39.20
62800;BME280;48842;51.046;13.796;2022-07-29T07:29:25;100402.28;;;22.57;39.14
62800;BME280;48842;51.046;13.796;2022-07-29T07:31:51;100398.75;;;22.57;39.19
62800;BME280;48842;51.046;13.796;2022-07-29T07:34:16;100400.44;;;22.59;39.37
62800;BME280;48842;51.046;13.796;2022-07-29T07:36:41;100401.97;;;22.65;39.26
62800;BME280;48842;51.046;13.796;2022-07-29T07:39:06;100404.28;;;22.73;39.46
62800;BME280;48842;51.046;13.796;2022-07-29T07:41:32;100395.25;;;22.75;39.00
62800;BME280;48842;51.046;13.796;2022-07-29T07:43:57;100391.53;;;22.79;39.10
62800;BME280;48842;51.046;13.796;2022-07-29T07:46:22;100392.06;;;22.86;39.10
62800;BME280;48842;51.046;13.796;2022-07-29T07:48:47;100393.53;;;22.93;39.07
62800;BME280;48842;51.046;13.796;2022-07-29T07:51:13;100391.72;;;22.94;38.75
62800;BME280;48842;51.046;13.796;2022-07-29T07:53:38;100385.44;;;22.95;38.90
62800;BME280;48842;51.046;13.796;2022-07-29T07:56:03;100385.28;;;22.98;39.14
62800;BME280;48842;51.046;13.796;2022-07-29T07:58:31;100385.88;;;23.05;38.99
62800;BME280;48842;51.046;13.796;2022-07-29T08:00:56;100390.88;;;23.12;38.90
62800;BME280;48842;51.046;13.796;2022-07-29T08:03:21;100390.66;;;23.17;38.62
62800;BME280;48842;51.046;13.796;2022-07-29T08:05:47;100381.63;;;23.20;38.62
62800;BME280;48842;51.046;13.796;2022-07-29T08:08:13;100383.16;;;23.25;38.67
62800;BME280;48842;51.046;13.796;2022-07-29T08:10:38;100379.25;;;23.32;38.70
62800;BME280;48842;51.046;13.796;2022-07-29T08:13:20;100379.66;;;23.42;38.42
62800;BME280;48842;51.046;13.796;2022-07-29T08:15:45;100377.53;;;23.49;38.26
62800;BME280;48842;51.046;13.796;2022-07-29T08:18:12;100368.44;;;23.53;38.13
62800;BME280;48842;51.046;13.796;2022-07-29T08:20:37;100362.69;;;23.61;38.29
62800;BME280;48842;51.046;13.796;2022-07-29T08:23:04;100359.50;;;23.72;37.99
62800;BME280;48842;51.046;13.796;2022-07-29T08:25:31;100351.00;;;23.81;38.31
62800;BME280;48842;51.046;13.796;2022-07-29T08:27:57;100348.75;;;23.91;37.99
62800;BME280;48842;51.046;13.796;2022-07-29T08:30:22;100346.69;;;23.96;38.10
62800;BME280;48842;51.046;13.796;2022-07-29T08:32:48;100351.72;;;24.02;37.76
62800;BME280;48842;51.046;13.796;2022-07-29T08:35:14;100344.16;;;24.10;38.04
62800;BME280;48842;51.046;13.796;2022-07-29T08:37:39;100345.56;;;24.17;37.93
62800;BME280;48842;51.046;13.796;2022-07-29T08:40:05;100338.94;;;24.25;37.73
62800;BME280;48842;51.046;13.796;2022-07-29T08:42:31;100346.63;;;24.31;37.58
62800;BME280;48842;51.046;13.796;2022-07-29T08:44:56;100342.84;;;24.35;37.89
62800;BME280;48842;51.046;13.796;2022-07-29T08:47:22;100337.97;;;24.43;37.82
62800;BME280;48842;51.046;13.796;2022-07-29T08:49:47;100346.34;;;24.53;37.76
62800;BME280;48842;51.046;13.796;2022-07-29T08:52:14;100340.72;;;24.59;37.35
62800;BME280;48842;51.046;13.796;2022-07-29T08:54:43;100344.84;;;24.65;37.21
62800;BME280;48842;51.046;13.796;2022-07-29T08:57:12;100345.22;;;24.74;37.09
62800;BME280;48842;51.046;13.796;2022-07-29T08:59:40;100334.13;;;24.81;36.68
62800;BME280;48842;51.046;13.796;2022-07-29T09:02:13;100336.31;;;24.90;36.09
62800;BME280;48842;51.046;13.796;2022-07-29T09:04:40;100335.88;;;24.98;36.39
62800;BME280;48842;51.046;13.796;2022-07-29T09:07:06;100330.09;;;25.05;36.33
62800;BME280;48842;51.046;13.796;2022-07-29T09:09:33;100331.03;;;25.20;36.26
62800;BME280;48842;51.046;13.796;2022-07-29T09:11:59;100321.56;;;25.31;35.90
62800;BME280;48842;51.046;13.796;2022-07-29T09:14:24;100320.25;;;25.38;35.92
62800;BME280;48842;51.046;13.796;2022-07-29T09:16:51;100316.16;;;25.47;35.90
62800;BME280;48842;51.046;13.796;2022-07-29T09:19:21;100318.38;;;25.54;36.09
62800;BME280;48842;51.046;13.796;2022-07-29T09:21:47;100315.13;;;25.64;35.95
62800;BME280;48842;51.046;13.796;2022-07-29T09:24:37;100315.38;;;25.75;36.09
62800;BME280;48842;51.046;13.796;2022-07-29T09:27:18;100304.94;;;25.85;35.82
62800;BME280;48842;51.046;13.796;2022-07-29T09:29:58;100302.44;;;25.96;35.36
62800;BME280;48842;51.046;13.796;2022-07-29T09:32:24;100304.53;;;26.07;35.06
62800;BME280;48842;51.046;13.796;2022-07-29T09:34:51;100292.34;;;26.16;34.91
62800;BME280;48842;51.046;13.796;2022-07-29T09:37:36;100287.34;;;26.24;35.06
62800;BME280;48842;51.046;13.796;2022-07-29T09:40:11;100293.03;;;26.34;34.39
62800;BME280;48842;51.046;13.796;2022-07-29T09:42:36;100281.78;;;26.41;34.26
62800;BME280;48842;51.046;13.796;2022-07-29T09:45:02;100284.09;;;26.47;34.57
62800;BME280;48842;51.046;13.796;2022-07-29T09:47:44;100290.72;;;26.56;34.24
62800;BME280;48842;51.046;13.796;2022-07-29T09:50:10;100290.31;;;26.62;34.01
62800;BME280;48842;51.046;13.796;2022-07-29T09:52:45;100289.16;;;26.67;33.91
62800;BME280;48842;51.046;13.796;2022-07-29T09:55:11;100290.31;;;26.77;33.72
62800;BME280;48842;51.046;13.796;2022-07-29T09:57:37;100292.59;;;26.83;33.39
62800;BME280;48842;51.046;13.796;2022-07-29T10:00:09;100293.63;;;26.95;33.08
62800;BME280;48842;51.046;13.796;2022-07-29T10:02:36;100286.88;;;27.02;32.78
62800;BME280;48842;51.046;13.796;2022-07-29T10:05:03;100286.38;;;27.10;33.00
62800;BME280;48842;51.046;13.796;2022-07-29T10:07:50;100287.69;;;27.17;32.94
62800;BME280;48842;51.046;13.796;2022-07-29T10:10:24;100289.97;;;27.23;32.56
62800;BME280;48842;51.046;13.796;2022-07-29T10:13:01;100288.69;;;27.29;32.28
62800;BME280;48842;51.046;13.796;2022-07-29T10:15:28;100279.44;;;27.33;31.82
62800;BME280;48842;51.046;13.796;2022-07-29T10:17:55;100281.00;;;27.37;31.80
62800;BME280;48842;51.046;13.796;2022-07-29T10:20:22;100283.38;;;27.42;31.85
62800;BME280;48842;51.046;13.796;2022-07-29T10:22:48;100284.91;;;27.46;31.64
62800;BME280;48842;51.046;13.796;2022-07-29T10:25:16;100272.09;;;27.49;31.61
62800;BME280;48842;51.046;13.796;2022-07-29T10:27:42;100276.19;;;27.55;31.55
62800;BME280;48842;51.046;13.796;2022-07-29T10:30:08;100282.03;;;27.62;31.58
62800;BME280;48842;51.046;13.796;2022-07-29T10:32:55;100272.47;;;27.71;31.51
62800;BME280;48842;51.046;13.796;2022-07-29T10:35:44;100281.72;;;27.79;31.54
62800;BME280;48842;51.046;13.796;2022-07-29T10:38:30;100274.06;;;27.86;31.09
62800;BME280;48842;51.046;13.796;2022-07-29T10:43:53;100278.66;;;27.98;30.72
62800;BME280;48842;51.046;13.796;2022-07-29T10:46:19;100275.50;;;28.04;30.65
62800;BME280;48842;51.046;13.796;2022-07-29T10:49:04;100275.06;;;28.11;30.17
62800;BME280;48842;51.046;13.796;2022-07-29T10:52:06;100268.16;;;28.19;30.05
62800;BME280;48842;51.046;13.796;2022-07-29T10:54:41;100269.22;;;28.30;30.21
62800;BME280;48842;51.046;13.796;2022-07-29T10:57:16;100265.00;;;28.38;30.01
62800;BME280;48842;51.046;13.796;2022-07-29T10:59:43;100270.94;;;28.44;29.81
62800;BME280;48842;51.046;13.796;2022-07-29T11:05:06;100260.06;;;28.45;29.35
62800;BME280;48842;51.046;13.796;2022-07-29T11:07:33;100260.16;;;28.44;29.52
62800;BME280;48842;51.046;13.796;2022-07-29T11:15:04;100261.25;;;28.41;29.82
62800;BME280;48842;51.046;13.796;2022-07-29T11:23:00;100253.81;;;28.45;29.39
62800;BME280;48842;51.046;13.796;2022-07-29T11:25:25;100262.53;;;28.48;29.52
62800;BME280;48842;51.046;13.796;2022-07-29T11:27:52;100242.69;;;28.49;29.37
62800;BME280;48842;51.046;13.796;2022-07-29T11:30:19;100242.56;;;28.51;29.29
62800;BME280;48842;51.046;13.796;2022-07-29T11:32:45;100240.97;;;28.48;29.58
62800;BME280;48842;51.046;13.796;2022-07-29T11:35:19;100242.69;;;28.49;29.37
62800;BME280;48842;51.046;13.796;2022-07-29T11:38:23;100247.19;;;28.49;29.62
62800;BME280;48842;51.046;13.796;2022-07-29T11:43:55;100230.50;;;28.56;29.45
62800;BME280;48842;51.046;13.796;2022-07-29T11:46:44;100239.31;;;28.59;29.53
62800;BME280;48842;51.046;13.796;2022-07-29T11:49:11;100237.31;;;28.62;29.90
62800;BME280;48842;51.046;13.796;2022-07-29T11:51:37;100227.25;;;28.64;29.58
62800;BME280;48842;51.046;13.796;2022-07-29T11:54:04;100239.66;;;28.67;29.71
62800;BME280;48842;51.046;13.796;2022-07-29T11:56:31;100224.97;;;28.71;29.78
62800;BME280;48842;51.046;13.796;2022-07-29T11:59:03;100230.75;;;28.78;29.71
62800;BME280;48842;51.046;13.796;2022-07-29T12:01:29;100232.03;;;28.85;29.12
62800;BME280;48842;51.046;13.796;2022-07-29T12:04:05;100222.72;;;28.89;29.25
62800;BME280;48842;51.046;13.796;2022-07-29T12:06:32;100239.53;;;28.93;29.23
62800;BME280;48842;51.046;13.796;2022-07-29T12:08:57;100228.53;;;28.96;29.44
62800;BME280;48842;51.046;13.796;2022-07-29T12:11:22;100231.13;;;28.97;29.34
62800;BME280;48842;51.046;13.796;2022-07-29T12:13:49;100229.88;;;29.01;29.48
62800;BME280;48842;51.046;13.796;2022-07-29T12:16:14;100233.13;;;29.06;29.34
62800;BME280;48842;51.046;13.796;2022-07-29T12:18:40;100223.06;;;29.08;29.42
62800;BME280;48842;51.046;13.796;2022-07-29T12:21:05;100227.13;;;29.14;29.30
62800;BME280;48842;51.046;13.796;2022-07-29T12:23:31;100223.94;;;29.20;29.24
62800;BME280;48842;51.046;13.796;2022-07-29T12:25:58;100226.25;;;29.27;29.15
62800;BME280;48842;51.046;13.796;2022-07-29T12:28:23;100228.22;;;29.36;29.00
62800;BME280;48842;51.046;13.796;2022-07-29T12:30:49;100216.94;;;29.42;28.92
62800;BME280;48842;51.046;13.796;2022-07-29T12:33:16;100217.09;;;29.52;28.80
62800;BME280;48842;51.046;13.796;2022-07-29T12:35:44;100216.38;;;29.61;28.80
62800;BME280;48842;51.046;13.796;2022-07-29T12:38:11;100207.56;;;29.70;28.83
62800;BME280;48842;51.046;13.796;2022-07-29T12:40:37;100209.66;;;29.78;28.54
62800;BME280;48842;51.046;13.796;2022-07-29T12:43:07;100204.66;;;29.85;28.40
62800;BME280;48842;51.046;13.796;2022-07-29T12:45:35;100212.41;;;29.89;28.16
62800;BME280;48842;51.046;13.796;2022-07-29T12:48:00;100202.94;;;29.95;28.67
62800;BME280;48842;51.046;13.796;2022-07-29T12:50:25;100203.44;;;30.00;28.35
62800;BME280;48842;51.046;13.796;2022-07-29T12:52:50;100206.63;;;30.05;28.62
62800;BME280;48842;51.046;13.796;2022-07-29T12:55:31;100205.50;;;30.08;28.24
62800;BME280;48842;51.046;13.796;2022-07-29T12:58:01;100208.00;;;30.11;28.18
62800;BME280;48842;51.046;13.796;2022-07-29T13:00:26;100198.88;;;30.12;28.12
62800;BME280;48842;51.046;13.796;2022-07-29T13:02:59;100203.19;;;30.15;28.06